Accueil
METAR-TAF:

METAR-TAF

Aéroports :

Norwich, Angleterre

Aéroport international de Norwich

latitude: 52-38N, longitude: 001-18E, altitude: 14 m

Observation

Le bulletin a été fait il y a 11 minutes, à 02:20 UTC
Vent 10 kt de est/sud-est
Température 11°C
Humidité 71%
Pression 1000 hPa
Visibilité 10 km ou plus

METAR: EGSH 010220Z AUTO 12010KT 9999 NCD 11/06 Q1000

Heure: 03:31 (02:31 UTC)

Prévision

Le bulletin a été fait il y a 6 heures et 30 minutes, à 20:01 UTC
Prévision valable du 30 à 21 UTC au 30 à 24 UTC
Vent 12 kt de est/sud-est
Visibilité 10 km ou plus
Quelques nuages à une hauteur de 4500 ft

TAF: EGSH 302001Z 3021/3024 11012KT 9999 FEW045

Observations et prévisions météorologiques de plus de 4000 aéroports (messages METAR et TAF).

Les stations disponibles sont représentées par des disques jaunes et rouges sur la carte.

Passer la souris dessus pour voir le nom de la station.

Cliquer dessus pour voir les observations et prévisions météorologiques.

Pour changer de carte: cliquez sur les boutons verts avec une croix noire pour zoomer, sur le bouton vert avec un tiret pour effectuer un zoom arrière, ou sur les flèches vertes pour les cartes adjacentes.


METAR-TAF: